Time;durP1;ratioP1;P1;durP2;ratioP2;P2;SDS_P1;SDS_P2;PMS_P1;PMS_P2;Temp;Humidity;BMP_temperature;BMP_pressure;BME280_temperature;BME280_humidity;BME280_pressure;Samples;Min_cycle;Max_cycle;Signal;HPM_P1;HPM_P2
2023/10/03 00:00:09;;;;;;;28.33;12.77;;;;;;;18.01;100.00;100928.19;5077988;28;20035;-75
2023/10/03 00:02:34;;;;;;;32.67;13.93;;;;;;;17.99;100.00;100932.72;5077467;28;20434;-75
2023/10/03 00:05:00;;;;;;;29.23;13.13;;;;;;;17.99;100.00;100932.72;5078243;28;20056;-75
2023/10/03 00:07:25;;;;;;;27.00;12.85;;;;;;;17.99;100.00;100923.00;5076229;28;20235;-75
2023/10/03 00:09:50;;;;;;;29.50;12.77;;;;;;;17.98;100.00;100916.00;5077288;28;20047;-75
2023/10/03 00:12:16;;;;;;;24.88;12.57;;;;;;;17.99;100.00;100927.44;5077847;28;20066;-75
2023/10/03 00:14:41;;;;;;;26.38;12.77;;;;;;;17.98;100.00;100920.47;5077414;28;20041;-75
2023/10/03 00:17:07;;;;;;;26.65;13.32;;;;;;;17.97;100.00;100913.44;5076702;28;20028;-75
2023/10/03 00:19:32;;;;;;;37.20;14.27;;;;;;;17.95;100.00;100904.75;5077329;28;20388;-74
2023/10/03 00:21:58;;;;;;;32.85;14.50;;;;;;;17.94;100.00;100905.75;5078015;28;20066;-75
2023/10/03 00:24:24;;;;;;;28.88;13.15;;;;;;;17.94;100.00;100895.97;5077594;28;20066;-75
2023/10/03 00:26:53;;;;;;;35.60;14.18;;;;;;;17.94;100.00;100887.19;5077325;28;20040;-75
2023/10/03 00:29:23;;;;;;;29.50;13.68;;;;;;;17.95;100.00;100884.41;5077267;28;20358;-75
2023/10/03 00:31:49;;;;;;;26.85;13.02;;;;;;;17.97;100.00;100885.16;5076962;28;20095;-75
2023/10/03 00:34:15;;;;;;;27.40;12.70;;;;;;;17.99;100.00;100888.56;5077502;28;20016;-75
2023/10/03 00:36:41;;;;;;;29.33;13.70;;;;;;;18.01;100.00;100881.34;5076985;28;20376;-75
2023/10/03 00:39:06;;;;;;;40.90;14.30;;;;;;;18.05;100.00;100878.47;5077570;28;20091;-74
2023/10/03 00:41:34;;;;;;;30.75;13.63;;;;;;;18.07;100.00;100874.75;5076818;28;20063;-75
2023/10/03 00:44:03;;;;;;;31.30;13.05;;;;;;;18.08;100.00;100881.75;5077203;28;20406;-75
2023/10/03 00:46:30;;;;;;;25.90;12.65;;;;;;;18.12;100.00;100867.31;5076608;28;20036;-74
2023/10/03 00:48:56;;;;;;;33.78;13.40;;;;;;;18.12;100.00;100872.63;5077159;28;20028;-74
2023/10/03 00:51:22;;;;;;;27.80;13.13;;;;;;;18.11;100.00;100857.66;5077398;28;20029;-74
2023/10/03 00:53:51;;;;;;;32.38;13.80;;;;;;;18.12;100.00;100861.16;5076835;28;20405;-75
2023/10/03 00:56:16;;;;;;;;;;;;;;;18.11;100.00;100855.00;5076172;28;20043;-75
2023/10/03 00:58:42;;;;;;;32.30;13.30;;;;;;;18.09;100.00;100846.34;5076359;28;19913;-74
2023/10/03 01:04:15;;;;;;;27.10;12.35;;;;;;;18.11;100.00;100822.38;5267300;22;20060;-75
2023/10/03 01:06:41;;;;;;;28.25;11.93;;;;;;;18.11;100.00;100825.03;5078196;28;20032;-75
2023/10/03 01:09:14;;;;;;;28.75;13.23;;;;;;;18.10;100.00;100821.53;5076836;28;20408;-75
2023/10/03 01:11:40;;;;;;;28.10;13.40;;;;;;;18.08;100.00;100809.34;5076438;28;20113;-75
2023/10/03 01:14:06;;;;;;;28.65;13.07;;;;;;;18.09;100.00;100816.34;5076188;28;20028;-75
2023/10/03 01:16:33;;;;;;;32.67;13.40;;;;;;;18.09;100.00;100803.09;5075964;28;20059;-75
2023/10/03 01:19:08;;;;;;;31.02;13.98;;;;;;;18.09;99.98;100811.88;5076864;28;20047;-75
2023/10/03 01:21:34;;;;;;;29.30;12.77;;;;;;;18.09;100.00;100814.53;5076352;28;20040;-75
2023/10/03 01:24:02;;;;;;;30.98;13.05;;;;;;;18.11;100.00;100825.88;5076659;28;20303;-75
2023/10/03 01:26:29;;;;;;;28.33;12.48;;;;;;;18.10;99.97;100824.19;5075802;28;20326;-75
2023/10/03 01:28:55;;;;;;;30.45;13.10;;;;;;;18.11;100.00;100809.13;5076524;28;20316;-75
2023/10/03 01:31:21;;;;;;;26.40;11.80;;;;;;;18.13;99.87;100810.69;5076126;28;20402;-75
2023/10/03 01:33:47;;;;;;;32.78;12.85;;;;;;;18.13;100.00;100810.69;5075796;28;20024;-75
2023/10/03 01:36:13;;;;;;;31.10;13.55;;;;;;;18.15;100.00;100814.06;5075820;28;20032;-75
2023/10/03 01:38:38;;;;;;;33.03;13.88;;;;;;;18.16;99.69;100820.25;5075777;28;20334;-75
2023/10/03 01:41:06;;;;;;;32.47;12.73;;;;;;;18.17;99.56;100814.84;5076232;28;20032;-75
2023/10/03 01:43:31;;;;;;;30.23;13.27;;;;;;;18.18;99.63;100816.50;5075406;28;20095;-75
2023/10/03 01:45:57;;;;;;;30.38;13.05;;;;;;;18.20;99.60;100819.06;5076165;28;20024;-75
2023/10/03 01:48:23;;;;;;;28.08;13.55;;;;;;;18.18;99.70;100816.50;5094150;28;20058;-75
2023/10/03 01:50:52;;;;;;;26.15;12.18;;;;;;;18.21;99.82;100818.94;5093562;28;20039;-76
2023/10/03 01:53:18;;;;;;;31.83;12.82;;;;;;;18.22;99.90;100814.47;5081812;28;20044;-75
2023/10/03 01:55:44;;;;;;;29.83;12.52;;;;;;;18.25;99.68;100797.53;5087636;28;20036;-75
2023/10/03 01:58:09;;;;;;;33.03;12.48;;;;;;;18.27;99.73;100787.66;5095997;28;20054;-75
2023/10/03 02:00:36;;;;;;;28.05;11.82;;;;;;;18.29;99.60;100777.78;5092344;28;20046;-75
2023/10/03 02:03:05;;;;;;;28.92;12.20;;;;;;;18.31;99.38;100783.81;5095520;28;20114;-75
2023/10/03 02:05:33;;;;;;;26.25;12.18;;;;;;;18.32;99.44;100778.41;5092648;28;20040;-75
2023/10/03 02:08:04;;;;;;;30.88;12.13;;;;;;;18.35;99.57;100779.97;5096019;28;20054;-75
2023/10/03 02:10:29;;;;;;;25.52;11.85;;;;;;;18.37;99.37;100781.56;5091087;28;20044;-75
2023/10/03 02:12:56;;;;;;;22.65;10.82;;;;;;;18.37;99.33;100781.56;5095690;28;20119;-75
2023/10/03 02:15:26;;;;;;;24.25;11.23;;;;;;;18.38;99.91;100779.75;5088765;28;20133;-75
2023/10/03 02:17:53;;;;;;;29.13;12.10;;;;;;;18.39;99.86;100762.84;5075668;28;20043;-75
2023/10/03 02:20:25;;;;;;;24.55;11.05;;;;;;;18.39;100.00;100757.56;5079075;28;20044;-75
2023/10/03 02:23:05;;;;;;;22.48;10.52;;;;;;;18.41;100.00;100756.50;5075263;28;20040;-75
2023/10/03 02:25:38;;;;;;;20.15;9.60;;;;;;;18.44;100.00;100749.28;5080691;28;20057;-75
2023/10/03 02:28:05;;;;;;;26.15;11.13;;;;;;;18.43;100.00;100751.09;5085981;28;20036;-74
2023/10/03 02:30:31;;;;;;;27.20;10.77;;;;;;;18.46;100.00;100755.28;5081656;28;20429;-74
2023/10/03 02:33:04;;;;;;;20.52;9.68;;;;;;;18.46;100.00;100763.25;5075364;28;20032;-74
2023/10/03 02:35:29;;;;;;;18.35;9.05;;;;;;;18.47;100.00;100759.66;5078176;28;20056;-74
2023/10/03 02:37:56;;;;;;;18.13;8.90;;;;;;;18.48;100.00;100756.03;5094955;28;20039;-74
2023/10/03 02:40:30;;;;;;;21.35;9.00;;;;;;;18.48;100.00;100754.25;5086287;28;20315;-74
2023/10/03 02:42:55;;;;;;;25.85;9.85;;;;;;;18.50;100.00;100777.97;5089330;28;20028;-75
2023/10/03 02:45:23;;;;;;;45.58;10.32;;;;;;;18.51;100.00;100777.84;5075433;28;20047;-75
2023/10/03 02:47:55;;;;;;;28.05;9.43;;;;;;;18.52;100.00;100791.94;5094755;28;20050;-74
2023/10/03 02:50:24;;;;;;;22.92;8.30;;;;;;;18.51;100.00;100795.56;5085117;28;20040;-75
2023/10/03 02:52:51;;;;;;;28.40;8.10;;;;;;;18.51;100.00;100791.13;5093086;28;20297;-75
2023/10/03 02:55:17;;;;;;;54.55;8.77;;;;;;;18.52;99.64;100821.13;5074761;28;20039;-74
2023/10/03 02:57:44;;;;;;;33.90;7.57;;;;;;;18.52;99.41;100803.44;5086949;28;20123;-75
2023/10/03 03:00:13;;;;;;;45.88;8.00;;;;;;;18.51;98.76;100804.38;5074333;28;20056;-76
2023/10/03 03:02:41;;;;;;;27.88;6.43;;;;;;;18.52;98.68;100803.44;5074240;28;20042;-74
2023/10/03 03:05:11;;;;;;;17.75;6.15;;;;;;;18.50;99.13;100805.34;5074855;28;20052;-75
2023/10/03 03:07:36;;;;;;;20.48;5.80;;;;;;;18.49;99.18;100803.66;5074666;28;20254;-74
2023/10/03 03:10:02;;;;;;;12.15;5.82;;;;;;;18.48;99.49;100804.63;5074733;28;20083;-75
2023/10/03 03:12:28;;;;;;;24.92;6.60;;;;;;;18.46;99.87;100821.59;5074234;28;20086;-74
2023/10/03 03:14:54;;;;;;;10.07;5.05;;;;;;;18.46;100.00;100803.84;5074974;28;20036;-74
2023/10/03 03:17:21;;;;;;;17.67;5.43;;;;;;;18.42;100.00;100810.34;5074378;28;20036;-75
2023/10/03 03:19:47;;;;;;;35.70;5.85;;;;;;;18.33;100.00;100819.84;5074415;28;20420;-75
2023/10/03 03:22:15;;;;;;;23.17;6.13;;;;;;;18.33;100.00;100826.94;5074283;28;20040;-75
2023/10/03 03:24:41;;;;;;;32.15;5.93;;;;;;;18.30;100.00;100813.91;5074158;28;20063;-74
2023/10/03 03:27:11;;;;;;;28.92;6.28;;;;;;;18.30;100.00;100809.47;5078687;28;20088;-74
2023/10/03 03:29:38;;;;;;;20.40;6.15;;;;;;;18.28;100.00;100818.47;5078167;28;20103;-74
2023/10/03 03:32:04;;;;;;;20.10;5.68;;;;;;;18.21;100.00;100829.56;5078783;28;20093;-75
2023/10/03 03:34:30;;;;;;;28.95;6.75;;;;;;;18.19;100.00;100831.47;5078002;28;20367;-75
2023/10/03 03:37:14;;;;;;;30.17;5.55;;;;;;;18.14;100.00;100833.59;5078391;28;20338;-74
2023/10/03 03:39:51;;;;;;;14.73;6.03;;;;;;;18.17;100.00;100821.91;5078247;28;20036;-75
2023/10/03 03:42:17;;;;;;;21.43;5.80;;;;;;;18.15;100.00;100823.84;5078290;28;20028;-74
2023/10/03 03:44:42;;;;;;;16.60;5.53;;;;;;;18.14;100.00;100812.41;5078090;28;20039;-74
2023/10/03 03:47:08;;;;;;;19.00;6.32;;;;;;;18.15;100.00;100814.06;5078265;28;20032;-74
2023/10/03 03:49:33;;;;;;;13.73;4.90;;;;;;;18.16;100.00;100822.91;5078034;28;20028;-75
2023/10/03 03:51:58;;;;;;;23.25;6.35;;;;;;;18.13;100.00;100831.06;5078102;28;20176;-74
2023/10/03 03:54:24;;;;;;;22.27;6.35;;;;;;;18.10;100.00;100832.13;5078007;28;20430;-74
2023/10/03 03:56:49;;;;;;;24.20;6.20;;;;;;;18.08;100.00;100812.84;5081962;28;20034;-74
2023/10/03 03:59:16;;;;;;;22.52;6.20;;;;;;;18.06;100.00;100814.75;5066552;28;20396;-75
2023/10/03 04:01:42;;;;;;;18.77;5.90;;;;;;;18.03;100.00;100813.19;5077896;28;20043;-75
2023/10/03 04:04:12;;;;;;;19.35;5.50;;;;;;;18.03;100.00;100823.78;5077935;28;20037;-74
2023/10/03 04:06:37;;;;;;;18.50;5.32;;;;;;;18.01;100.00;100825.69;5077669;28;20036;-75
2023/10/03 04:09:05;;;;;;;20.77;6.25;;;;;;;18.00;100.00;100828.44;5078208;28;20365;-75
2023/10/03 04:11:32;;;;;;;18.05;5.85;;;;;;;17.99;100.00;100826.75;5077870;28;20227;-75
2023/10/03 04:13:59;;;;;;;17.50;6.10;;;;;;;17.97;100.00;100836.59;5077407;28;20034;-74
2023/10/03 04:16:27;;;;;;;10.77;4.90;;;;;;;17.98;100.00;100820.59;5077498;28;20284;-75
2023/10/03 04:18:53;;;;;;;14.15;5.18;;;;;;;17.97;100.00;100816.28;5077909;28;20029;-75
2023/10/03 04:21:19;;;;;;;22.38;5.68;;;;;;;17.90;100.00;100830.94;5077436;28;20123;-74
2023/10/03 04:23:45;;;;;;;7.40;4.68;;;;;;;17.93;100.00;100830.69;5077335;28;20374;-74
2023/10/03 04:26:11;;;;;;;10.57;4.70;;;;;;;17.94;100.00;100820.94;5077388;28;20037;-75
2023/10/03 04:28:38;;;;;;;15.13;4.80;;;;;;;17.93;100.00;100843.94;5077269;28;20334;-75
2023/10/03 04:31:04;;;;;;;16.83;4.95;;;;;;;17.88;100.00;100824.88;5077542;28;20032;-74
2023/10/03 04:33:29;;;;;;;17.05;4.70;;;;;;;17.86;100.00;100821.47;5076850;28;20044;-74
2023/10/03 04:35:56;;;;;;;15.73;4.50;;;;;;;17.84;100.00;100823.38;5077262;28;20032;-75
2023/10/03 04:38:22;;;;;;;13.65;4.13;;;;;;;17.88;100.00;100831.97;5075846;28;20071;-74
2023/10/03 04:40:47;;;;;;;16.23;4.05;;;;;;;17.86;100.00;100828.59;5077286;28;20047;-74
2023/10/03 04:43:14;;;;;;;8.43;3.92;;;;;;;17.87;100.00;100825.00;5076996;28;20032;-74
2023/10/03 04:45:41;;;;;;;16.70;4.60;;;;;;;17.81;100.00;100820.97;5076603;28;20031;-74
2023/10/03 04:48:06;;;;;;;13.63;3.40;;;;;;;17.83;100.00;100835.78;5077267;28;20342;-75
2023/10/03 04:50:35;;;;;;;11.23;3.20;;;;;;;17.83;100.00;100834.94;5076863;28;20023;-74
2023/10/03 04:53:02;;;;;;;5.07;3.22;;;;;;;17.87;100.00;100840.91;5076845;28;20136;-75
2023/10/03 04:55:27;;;;;;;17.50;3.90;;;;;;;17.84;100.00;100858.66;5076410;28;20032;-75
2023/10/03 04:57:54;;;;;;;11.75;3.97;;;;;;;17.87;100.00;100854.13;5077098;28;20051;-75
2023/10/03 05:00:22;;;;;;;20.08;3.63;;;;;;;17.86;100.00;100855.91;5076617;28;20036;-75
2023/10/03 05:02:50;;;;;;;22.00;4.15;;;;;;;17.80;100.00;100853.69;5076605;28;20078;-74
2023/10/03 05:05:18;;;;;;;13.57;4.20;;;;;;;17.77;100.00;100852.13;5076401;28;20115;-74
2023/10/03 05:07:52;;;;;;;21.38;4.18;;;;;;;17.79;100.00;100849.31;5076403;28;20024;-75
2023/10/03 05:10:18;;;;;;;12.65;3.85;;;;;;;17.77;100.00;100859.19;5076635;28;20227;-74
2023/10/03 05:12:48;;;;;;;14.75;4.10;;;;;;;17.79;100.00;100865.22;5076248;28;20044;-74
2023/10/03 05:15:17;;;;;;;14.75;3.97;;;;;;;17.75;100.00;100864.59;5076996;28;20067;-75
2023/10/03 05:17:44;;;;;;;20.88;4.22;;;;;;;17.73;100.00;100863.84;5080629;28;20039;-75
2023/10/03 05:20:12;;;;;;;15.15;4.35;;;;;;;17.74;100.00;100847.03;5090561;28;20081;-74
2023/10/03 05:22:37;;;;;;;20.58;4.60;;;;;;;17.73;100.00;100855.06;5073450;28;20285;-74
2023/10/03 05:25:07;;;;;;;16.88;4.03;;;;;;;17.75;100.00;100847.84;5076557;28;20028;-75
2023/10/03 05:27:33;;;;;;;11.52;3.65;;;;;;;17.75;100.00;100856.66;5075013;28;20319;-74
2023/10/03 05:30:05;;;;;;;28.73;4.72;;;;;;;17.73;100.00;100847.13;5069821;28;20039;-74
2023/10/03 05:32:33;;;;;;;15.95;3.97;;;;;;;17.72;100.00;100863.97;5075309;28;20238;-74
2023/10/03 05:34:58;;;;;;;24.20;3.97;;;;;;;17.73;100.00;100874.44;5075827;28;20315;-74
2023/10/03 05:37:25;;;;;;;11.82;3.80;;;;;;;17.73;100.00;100882.41;5072669;28;20087;-74
2023/10/03 05:39:51;;;;;;;14.73;3.90;;;;;;;17.75;100.00;100883.13;5071551;28;20357;-75
2023/10/03 05:42:20;;;;;;;9.57;3.05;;;;;;;17.74;100.00;100894.69;5074463;28;20040;-75
2023/10/03 05:44:46;;;;;;;5.38;3.17;;;;;;;17.69;100.00;100899.47;5072160;28;20289;-76
2023/10/03 05:47:12;;;;;;;10.20;2.80;;;;;;;17.72;100.00;100909.84;5072390;28;20044;-75
2023/10/03 05:49:38;;;;;;;5.93;3.03;;;;;;;17.72;100.00;100908.97;5072263;28;20040;-74
2023/10/03 05:52:03;;;;;;;4.78;2.38;;;;;;;17.72;100.00;100909.84;5072690;28;20079;-75
2023/10/03 05:54:30;;;;;;;5.10;2.10;;;;;;;17.70;100.00;100897.66;5069009;28;20067;-75
2023/10/03 05:56:56;;;;;;;6.50;2.08;;;;;;;17.69;100.00;100919.81;5068462;28;20526;-75
2023/10/03 05:59:21;;;;;;;7.68;1.95;;;;;;;17.65;100.00;100905.94;5071735;28;20032;-75
2023/10/03 06:01:47;;;;;;;5.60;2.00;;;;;;;17.64;100.00;100897.16;5074730;28;20040;-75
2023/10/03 06:04:13;;;;;;;5.35;1.90;;;;;;;17.62;100.00;100912.28;5074902;28;20082;-74
2023/10/03 06:06:38;;;;;;;4.55;1.83;;;;;;;17.59;100.00;100931.03;5074152;28;20209;-74
2023/10/03 06:09:04;;;;;;;5.03;1.77;;;;;;;17.59;100.00;100933.69;5073599;28;20028;-75
2023/10/03 06:11:30;;;;;;;3.80;1.60;;;;;;;17.60;100.00;100924.78;5074790;28;20028;-74
2023/10/03 06:13:57;;;;;;;4.72;1.80;;;;;;;17.60;100.00;100938.00;5074944;28;20401;-75
2023/10/03 06:16:24;;;;;;;3.72;1.50;;;;;;;17.59;100.00;100948.72;5075158;28;20043;-74
2023/10/03 06:18:50;;;;;;;6.63;2.00;;;;;;;17.53;99.94;100954.44;5074715;28;20020;-75
2023/10/03 06:21:16;;;;;;;5.00;1.70;;;;;;;17.53;100.00;100968.50;5074111;28;20051;-75
2023/10/03 06:23:41;;;;;;;7.47;1.90;;;;;;;17.52;100.00;100971.25;5074562;28;20386;-74
2023/10/03 06:26:07;;;;;;;11.32;2.03;;;;;;;17.51;100.00;100966.94;5072555;28;20041;-74
2023/10/03 06:28:32;;;;;;;2.53;1.60;;;;;;;17.49;100.00;100979.44;5070866;28;20118;-74
2023/10/03 06:30:57;;;;;;;6.43;2.00;;;;;;;17.46;100.00;100978.69;5068843;28;20111;-74
2023/10/03 06:33:23;;;;;;;5.75;1.73;;;;;;;17.46;100.00;100981.34;5074662;28;20054;-74
2023/10/03 06:35:50;;;;;;;3.13;1.52;;;;;;;17.46;100.00;100981.34;5073944;28;20074;-75
2023/10/03 06:38:16;;;;;;;3.83;1.95;;;;;;;17.48;100.00;100986.50;5074457;28;20118;-74
2023/10/03 06:40:42;;;;;;;3.08;1.70;;;;;;;17.49;100.00;100980.28;5072162;28;20231;-75
2023/10/03 06:43:07;;;;;;;2.95;1.27;;;;;;;17.49;100.00;100987.38;5073667;28;20032;-74
2023/10/03 06:45:33;;;;;;;6.13;1.80;;;;;;;17.47;100.00;100992.78;5070445;28;20044;-74
2023/10/03 06:48:03;;;;;;;2.97;1.17;;;;;;;17.46;100.00;101001.66;5070712;28;20036;-74
2023/10/03 06:50:29;;;;;;;2.63;1.50;;;;;;;17.47;100.00;101008.66;5072885;28;20135;-74
2023/10/03 06:52:55;;;;;;;2.65;1.17;;;;;;;17.47;100.00;101016.59;5071334;28;20235;-74
2023/10/03 06:55:20;;;;;;;2.00;1.30;;;;;;;17.46;100.00;101034.28;5074086;28;20190;-74
2023/10/03 06:57:46;;;;;;;6.47;1.80;;;;;;;17.44;100.00;101044.13;5073956;28;20244;-74
2023/10/03 07:00:13;;;;;;;5.63;1.63;;;;;;;17.42;100.00;101045.16;5069651;28;20028;-74
2023/10/03 07:02:41;;;;;;;2.22;1.55;;;;;;;17.41;100.00;101062.88;5072650;28;20052;-74
2023/10/03 07:05:07;;;;;;;4.72;1.58;;;;;;;17.37;100.00;101076.38;5072233;28;20044;-74
2023/10/03 07:07:34;;;;;;;5.95;1.42;;;;;;;17.24;100.00;101079.81;5074367;28;20373;-74
2023/10/03 07:09:59;;;;;;;6.28;1.52;;;;;;;17.17;100.00;101086.50;5073118;28;20391;-74
2023/10/03 07:12:25;;;;;;;5.32;1.42;;;;;;;17.10;100.00;101084.31;5072342;28;20282;-75
2023/10/03 07:14:50;;;;;;;4.45;1.38;;;;;;;16.97;100.00;101089.53;5072427;28;20340;-75
2023/10/03 07:17:16;;;;;;;3.47;0.82;;;;;;;16.93;100.00;101088.88;5070078;28;20028;-74
2023/10/03 07:19:45;;;;;;;2.05;0.80;;;;;;;16.87;100.00;101098.06;5072396;28;20255;-74
2023/10/03 07:22:11;;;;;;;3.60;1.08;;;;;;;16.92;100.00;101107.50;5073619;28;20036;-74
2023/10/03 07:24:38;;;;;;;4.97;1.20;;;;;;;16.94;100.00;101114.41;5072981;28;20032;-74
2023/10/03 07:27:03;;;;;;;2.00;0.65;;;;;;;16.98;100.00;101110.63;5068784;28;20278;-74
2023/10/03 07:29:29;;;;;;;2.83;1.23;;;;;;;16.89;100.00;101119.97;5073202;28;20227;-75
2023/10/03 07:31:54;;;;;;;2.97;0.95;;;;;;;16.86;100.00;101133.41;5074560;28;20041;-75
2023/10/03 07:34:21;;;;;;;4.80;1.20;;;;;;;16.81;100.00;101129.34;5086001;28;20040;-74
2023/10/03 07:36:46;;;;;;;4.68;1.00;;;;;;;16.85;100.00;101118.47;5074924;28;20358;-74
2023/10/03 07:39:14;;;;;;;3.30;0.95;;;;;;;16.85;100.00;101128.22;5073235;28;20040;-74
2023/10/03 07:41:40;;;;;;;3.35;1.20;;;;;;;16.86;100.00;101143.13;5073856;28;20040;-74
2023/10/03 07:44:05;;;;;;;3.35;0.90;;;;;;;16.87;100.00;101156.25;5085386;28;20038;-74
2023/10/03 07:46:30;;;;;;;2.35;0.80;;;;;;;16.87;100.00;101166.00;5075825;28;20331;-74
2023/10/03 07:48:56;;;;;;;2.97;1.08;;;;;;;16.81;100.00;101174.28;5073973;28;20039;-74
2023/10/03 07:51:29;;;;;;;4.55;1.15;;;;;;;16.77;100.00;101178.03;5067571;28;20095;-74
2023/10/03 07:53:55;;;;;;;2.58;1.30;;;;;;;16.81;100.00;101195.44;5075200;28;20048;-74
2023/10/03 07:56:25;;;;;;;4.25;1.23;;;;;;;16.84;100.00;101208.50;5072428;28;20025;-74
2023/10/03 07:58:54;;;;;;;6.85;1.10;;;;;;;16.83;100.00;101199.72;5075020;28;20624;-74
2023/10/03 08:01:24;;;;;;;1.98;1.02;;;;;;;16.83;100.00;101209.47;5072680;28;20035;-74
2023/10/03 08:03:57;;;;;;;3.55;1.05;;;;;;;16.85;100.00;101226.94;5074737;28;20335;-74
2023/10/03 08:06:33;;;;;;;1.33;0.80;;;;;;;16.85;100.00;101234.88;5066155;28;20034;-74
2023/10/03 08:08:59;;;;;;;2.15;0.60;;;;;;;16.87;100.00;101240.06;5071798;28;20033;-74
2023/10/03 08:11:28;;;;;;;3.03;0.70;;;;;;;16.75;100.00;101238.97;5076984;28;20297;-74
2023/10/03 08:14:17;;;;;;;1.83;0.88;;;;;;;16.79;100.00;101244.91;5077326;28;20089;-74
2023/10/03 08:16:46;;;;;;;1.05;0.60;;;;;;;16.81;100.00;101258.94;5077625;28;20044;-74
2023/10/03 08:19:25;;;;;;;2.15;0.68;;;;;;;16.77;100.00;101279.41;5077206;28;20282;-74
2023/10/03 08:21:54;;;;;;;1.45;0.70;;;;;;;16.67;100.00;101284.38;5082681;28;20096;-74
2023/10/03 08:24:28;;;;;;;2.30;0.85;;;;;;;16.67;100.00;101288.84;5083042;28;20026;-75
2023/10/03 08:26:58;;;;;;;5.55;0.82;;;;;;;16.63;100.00;101282.88;5091571;28;20065;-74
2023/10/03 08:29:25;;;;;;;2.60;0.85;;;;;;;16.68;100.00;101291.41;5061350;28;20078;-74
2023/10/03 08:31:58;;;;;;;2.72;0.88;;;;;;;16.72;100.00;101299.13;5079607;28;20338;-74
2023/10/03 08:34:27;;;;;;;0.70;0.40;;;;;;;16.75;100.00;101304.25;5083983;28;20032;-74
2023/10/03 08:36:58;;;;;;;1.58;0.60;;;;;;;16.72;100.00;101318.50;5091437;28;20283;-74
2023/10/03 08:39:25;;;;;;;3.95;0.90;;;;;;;16.66;100.00;101314.44;5089948;28;20028;-74
2023/10/03 08:42:12;;;;;;;0.90;0.60;;;;;;;16.63;100.00;101309.31;5078491;28;20040;-74
2023/10/03 08:44:56;;;;;;;4.88;0.85;;;;;;;16.50;100.00;101317.13;5074595;28;20032;-74
2023/10/03 08:47:29;;;;;;;4.13;0.75;;;;;;;16.40;100.00;101328.31;5079284;28;20032;-74
2023/10/03 08:50:14;;;;;;;2.28;0.70;;;;;;;16.40;100.00;101329.16;5076737;28;20285;-74
2023/10/03 08:52:47;;;;;;;2.13;0.50;;;;;;;16.37;100.00;101339.03;5076796;28;20066;-74
2023/10/03 08:55:19;;;;;;;5.60;0.85;;;;;;;16.12;100.00;101357.16;5076368;28;20032;-74
2023/10/03 08:57:47;;;;;;;4.93;0.70;;;;;;;16.11;100.00;101363.34;5084357;28;20044;-74
2023/10/03 09:00:13;;;;;;;4.03;0.93;;;;;;;16.08;100.00;101371.47;5080746;28;20042;-74
2023/10/03 09:02:46;;;;;;;2.95;1.00;;;;;;;16.10;100.00;101374.03;5091896;28;20362;-74
2023/10/03 09:05:19;;;;;;;3.35;0.90;;;;;;;16.10;100.00;101374.03;5077511;28;20101;-74
2023/10/03 09:07:48;;;;;;;3.75;0.73;;;;;;;16.10;100.00;101385.44;5083510;28;20032;-74
2023/10/03 09:10:24;;;;;;;3.60;0.63;;;;;;;16.15;100.00;101379.88;5076642;28;20063;-74
2023/10/03 09:13:13;;;;;;;1.65;0.55;;;;;;;16.20;100.00;101391.06;5078787;28;20246;-74
2023/10/03 09:15:42;;;;;;;3.53;0.85;;;;;;;16.22;100.00;101415.59;5066390;28;20067;-75
2023/10/03 09:18:10;;;;;;;1.23;0.60;;;;;;;16.14;100.00;101428.41;5088576;28;20062;-74
2023/10/03 09:20:36;;;;;;;2.00;0.83;;;;;;;16.06;100.00;101420.91;5081414;28;20327;-75
2023/10/03 09:23:05;;;;;;;5.00;0.93;;;;;;;15.98;100.00;101433.66;5073507;28;20294;-74
2023/10/03 09:25:32;;;;;;;5.03;0.93;;;;;;;15.90;100.00;101436.72;5071196;28;20012;-74
2023/10/03 09:28:09;;;;;;;1.98;0.70;;;;;;;15.97;100.00;101442.53;5079766;28;20362;-74
2023/10/03 09:30:38;;;;;;;4.13;0.60;;;;;;;15.93;100.00;101452.41;5076015;28;20044;-75
2023/10/03 09:33:17;;;;;;;0.90;0.50;;;;;;;15.97;100.00;101447.81;5075690;28;20035;-74
2023/10/03 09:35:55;;;;;;;;;;;;;;;15.99;100.00;101445.06;5074211;28;20042;-74
2023/10/03 09:38:31;;;;;;;;;;;;;;;15.98;100.00;101444.22;5077055;28;19924;-74
2023/10/03 09:40:57;;;;;;;9.85;1.15;;;;;;;15.96;100.00;101455.81;5080108;28;19916;-74
2023/10/03 09:43:27;;;;;;;1.45;0.85;;;;;;;15.96;100.00;101459.31;5075370;28;20039;-74
2023/10/03 09:45:56;;;;;;;1.75;0.70;;;;;;;15.96;100.00;101469.88;5080958;28;20047;-74
2023/10/03 09:48:25;;;;;;;1.38;0.75;;;;;;;15.99;100.00;101474.13;5083291;28;20212;-74
2023/10/03 09:51:05;;;;;;;1.25;0.77;;;;;;;15.99;100.00;101484.69;5085770;28;20358;-74
2023/10/03 09:53:31;;;;;;;3.13;0.90;;;;;;;15.99;100.00;101488.22;5068395;28;20032;-74
2023/10/03 09:55:57;;;;;;;1.70;0.55;;;;;;;15.97;100.00;101479.53;5082646;28;20245;-74
2023/10/03 09:58:31;;;;;;;2.55;1.00;;;;;;;15.94;100.00;101479.69;5076602;28;20036;-74
2023/10/03 10:00:57;;;;;;;6.63;1.40;;;;;;;15.87;100.00;101492.34;5078158;28;20040;-74
2023/10/03 10:03:46;;;;;;;2.25;1.05;;;;;;;15.81;100.00;101483.88;5064445;28;20381;-74
2023/10/03 10:06:37;;;;;;;5.70;1.42;;;;;;;15.79;100.00;101483.09;5073558;28;20360;-74
2023/10/03 10:09:23;;;;;;;3.78;1.25;;;;;;;15.78;100.00;101486.69;5077074;28;20064;-74
2023/10/03 10:12:10;;;;;;;4.60;1.85;;;;;;;15.75;100.00;101487.69;5076150;28;20338;-74
2023/10/03 10:15:00;;;;;;;6.65;2.13;;;;;;;15.69;100.00;101488.84;5084003;28;20103;-74
2023/10/03 10:17:39;;;;;;;5.65;2.45;;;;;;;15.70;100.00;101510.84;5073080;28;20092;-74
2023/10/03 10:20:09;;;;;;;4.95;2.00;;;;;;;15.59;100.00;101499.94;5069075;28;20060;-74
2023/10/03 10:23:01;;;;;;;4.80;1.75;;;;;;;15.62;100.00;101500.66;5075686;28;20078;-74
2023/10/03 10:25:31;;;;;;;7.50;1.98;;;;;;;15.60;100.00;101515.72;5082201;28;20040;-74
2023/10/03 10:28:07;;;;;;;7.72;2.10;;;;;;;15.65;100.00;101518.97;5079768;28;20039;-74
2023/10/03 10:30:36;;;;;;;7.22;2.33;;;;;;;15.65;100.00;101521.63;5068031;28;20112;-74
2023/10/03 10:33:23;;;;;;;4.13;2.00;;;;;;;15.69;100.00;101538.16;5087754;28;20342;-74
2023/10/03 10:35:56;;;;;;;2.72;1.80;;;;;;;15.72;100.00;101544.16;5075940;28;20040;-75
2023/10/03 10:38:45;;;;;;;4.03;2.00;;;;;;;15.78;100.00;101552.72;5077188;28;20032;-74
2023/10/03 10:44:13;;;;;;;4.43;1.83;;;;;;;15.78;100.00;101564.13;5073562;28;20227;-74
2023/10/03 10:46:46;;;;;;;6.75;2.20;;;;;;;15.69;100.00;101580.41;5080553;28;20323;-74
2023/10/03 10:49:30;;;;;;;5.15;1.90;;;;;;;15.62;100.00;101595.69;5071213;28;20036;-75
2023/10/03 10:52:07;;;;;;;9.95;2.50;;;;;;;15.42;100.00;101587.91;5076563;28;20036;-75
2023/10/03 10:54:39;;;;;;;4.90;1.75;;;;;;;15.46;100.00;101602.66;5075951;28;20051;-75
2023/10/03 10:57:06;;;;;;;9.02;2.80;;;;;;;15.34;100.00;101604.13;5077573;28;20032;-75
2023/10/03 10:59:35;;;;;;;4.63;2.00;;;;;;;15.34;100.00;101612.91;5076029;28;20274;-75
2023/10/03 11:02:03;;;;;;;3.75;1.73;;;;;;;15.26;100.00;101620.34;5076168;28;20021;-75
2023/10/03 11:04:33;;;;;;;6.45;2.17;;;;;;;15.26;100.00;101624.75;5085606;28;20028;-75
2023/10/03 11:06:58;;;;;;;5.47;2.05;;;;;;;15.28;100.00;101634.31;5077532;28;20335;-75
2023/10/03 11:09:23;;;;;;;7.40;2.35;;;;;;;15.20;100.00;101617.97;5076891;28;20261;-75
2023/10/03 11:11:52;;;;;;;3.97;1.98;;;;;;;15.18;100.00;101642.75;5081554;28;20062;-75
2023/10/03 11:14:26;;;;;;;6.43;2.40;;;;;;;15.13;100.00;101641.19;5085975;28;20047;-75
2023/10/03 11:16:52;;;;;;;7.70;2.15;;;;;;;15.07;100.00;101643.25;5083266;28;20276;-75
2023/10/03 11:19:17;;;;;;;5.93;1.92;;;;;;;15.03;100.00;101647.81;5083428;28;20044;-75
2023/10/03 11:21:43;;;;;;;4.93;1.85;;;;;;;14.96;100.00;101649.00;5071099;28;20032;-75
2023/10/03 11:24:12;;;;;;;4.90;2.10;;;;;;;15.02;100.00;101653.16;5081098;28;20036;-75